sensor_id;sensor_type;location;lat;lon;timestamp;P1;durP1;ratioP1;P2;durP2;ratioP2
10465;SDS011;5280;42.600;23.556;2022-09-21T00:01:23;1.10;;;1.10;;
10465;SDS011;5280;42.600;23.556;2022-09-21T00:03:54;1.43;;;1.43;;
10465;SDS011;5280;42.600;23.556;2022-09-21T00:06:23;1.20;;;1.20;;
10465;SDS011;5280;42.600;23.556;2022-09-21T00:08:51;1.30;;;1.30;;
10465;SDS011;5280;42.600;23.556;2022-09-21T00:11:19;1.50;;;1.40;;
10465;SDS011;5280;42.600;23.556;2022-09-21T00:13:50;1.60;;;1.50;;
10465;SDS011;5280;42.600;23.556;2022-09-21T00:16:19;1.27;;;1.27;;
10465;SDS011;5280;42.600;23.556;2022-09-21T00:18:46;1.20;;;1.20;;
10465;SDS011;5280;42.600;23.556;2022-09-21T00:21:15;1.40;;;1.40;;
10465;SDS011;5280;42.600;23.556;2022-09-21T00:23:43;1.47;;;1.30;;
10465;SDS011;5280;42.600;23.556;2022-09-21T00:26:11;1.30;;;1.30;;
10465;SDS011;5280;42.600;23.556;2022-09-21T00:28:40;1.40;;;1.40;;
10465;SDS011;5280;42.600;23.556;2022-09-21T00:31:09;1.20;;;1.20;;
10465;SDS011;5280;42.600;23.556;2022-09-21T00:33:38;1.40;;;1.40;;
10465;SDS011;5280;42.600;23.556;2022-09-21T00:36:06;1.53;;;1.47;;
10465;SDS011;5280;42.600;23.556;2022-09-21T00:38:36;2.00;;;1.90;;
10465;SDS011;5280;42.600;23.556;2022-09-21T00:41:04;1.80;;;1.70;;
10465;SDS011;5280;42.600;23.556;2022-09-21T00:43:32;1.60;;;1.50;;
10465;SDS011;5280;42.600;23.556;2022-09-21T00:46:00;1.80;;;1.70;;
10465;SDS011;5280;42.600;23.556;2022-09-21T00:48:29;1.77;;;1.67;;
10465;SDS011;5280;42.600;23.556;2022-09-21T00:50:58;1.43;;;1.43;;
10465;SDS011;5280;42.600;23.556;2022-09-21T00:53:28;2.20;;;2.00;;
10465;SDS011;5280;42.600;23.556;2022-09-21T00:55:57;2.17;;;2.07;;
10465;SDS011;5280;42.600;23.556;2022-09-21T00:58:28;2.30;;;2.10;;
10465;SDS011;5280;42.600;23.556;2022-09-21T01:00:59;2.40;;;2.30;;
10465;SDS011;5280;42.600;23.556;2022-09-21T01:03:26;2.90;;;2.20;;
10465;SDS011;5280;42.600;23.556;2022-09-21T01:05:55;2.40;;;2.20;;
10465;SDS011;5280;42.600;23.556;2022-09-21T01:08:22;2.10;;;2.00;;
10465;SDS011;5280;42.600;23.556;2022-09-21T01:10:59;3.13;;;2.20;;
10465;SDS011;5280;42.600;23.556;2022-09-21T01:13:44;1.73;;;1.63;;
10465;SDS011;5280;42.600;23.556;2022-09-21T01:16:22;2.80;;;2.60;;
10465;SDS011;5280;42.600;23.556;2022-09-21T01:18:55;2.60;;;2.40;;
10465;SDS011;5280;42.600;23.556;2022-09-21T01:21:32;3.13;;;2.93;;
10465;SDS011;5280;42.600;23.556;2022-09-21T01:24:07;2.70;;;2.50;;
10465;SDS011;5280;42.600;23.556;2022-09-21T01:29:45;3.63;;;3.33;;
10465;SDS011;5280;42.600;23.556;2022-09-21T01:32:15;3.07;;;2.80;;
10465;SDS011;5280;42.600;23.556;2022-09-21T01:34:48;4.20;;;2.97;;
10465;SDS011;5280;42.600;23.556;2022-09-21T01:37:20;3.40;;;2.80;;
10465;SDS011;5280;42.600;23.556;2022-09-21T01:39:52;2.70;;;2.50;;
10465;SDS011;5280;42.600;23.556;2022-09-21T01:42:23;2.80;;;2.60;;
10465;SDS011;5280;42.600;23.556;2022-09-21T01:44:54;2.63;;;2.43;;
10465;SDS011;5280;42.600;23.556;2022-09-21T01:47:23;2.60;;;2.40;;
10465;SDS011;5280;42.600;23.556;2022-09-21T01:49:51;2.37;;;2.27;;
10465;SDS011;5280;42.600;23.556;2022-09-21T01:52:24;2.40;;;2.30;;
10465;SDS011;5280;42.600;23.556;2022-09-21T01:55:00;2.20;;;2.03;;
10465;SDS011;5280;42.600;23.556;2022-09-21T01:57:33;2.60;;;2.40;;
10465;SDS011;5280;42.600;23.556;2022-09-21T02:00:08;2.10;;;1.90;;
10465;SDS011;5280;42.600;23.556;2022-09-21T02:02:38;1.90;;;1.80;;
10465;SDS011;5280;42.600;23.556;2022-09-21T02:05:09;1.80;;;1.70;;
10465;SDS011;5280;42.600;23.556;2022-09-21T02:07:37;1.50;;;1.40;;
10465;SDS011;5280;42.600;23.556;2022-09-21T02:10:08;1.90;;;1.80;;
10465;SDS011;5280;42.600;23.556;2022-09-21T02:12:38;1.80;;;1.70;;
10465;SDS011;5280;42.600;23.556;2022-09-21T02:15:08;1.70;;;1.60;;
10465;SDS011;5280;42.600;23.556;2022-09-21T02:17:38;1.30;;;1.30;;
10465;SDS011;5280;42.600;23.556;2022-09-21T02:20:15;1.67;;;1.60;;
10465;SDS011;5280;42.600;23.556;2022-09-21T02:22:57;1.23;;;1.23;;
10465;SDS011;5280;42.600;23.556;2022-09-21T02:25:34;7.53;;;1.80;;
10465;SDS011;5280;42.600;23.556;2022-09-21T02:28:07;2.03;;;1.50;;
10465;SDS011;5280;42.600;23.556;2022-09-21T02:30:46;2.27;;;1.50;;
10465;SDS011;5280;42.600;23.556;2022-09-21T02:33:21;1.90;;;1.80;;
10465;SDS011;5280;42.600;23.556;2022-09-21T02:35:58;1.77;;;1.67;;
10465;SDS011;5280;42.600;23.556;2022-09-21T02:38:32;1.50;;;1.50;;
10465;SDS011;5280;42.600;23.556;2022-09-21T02:41:03;2.10;;;2.00;;
10465;SDS011;5280;42.600;23.556;2022-09-21T02:43:40;1.97;;;1.87;;
10465;SDS011;5280;42.600;23.556;2022-09-21T02:46:13;2.30;;;2.20;;
10465;SDS011;5280;42.600;23.556;2022-09-21T02:48:45;2.60;;;2.40;;
10465;SDS011;5280;42.600;23.556;2022-09-21T02:51:15;2.83;;;2.53;;
10465;SDS011;5280;42.600;23.556;2022-09-21T02:53:45;2.33;;;2.17;;
10465;SDS011;5280;42.600;23.556;2022-09-21T02:56:16;2.97;;;2.63;;
10465;SDS011;5280;42.600;23.556;2022-09-21T02:58:44;2.63;;;2.43;;
10465;SDS011;5280;42.600;23.556;2022-09-21T03:01:17;3.13;;;2.43;;
10465;SDS011;5280;42.600;23.556;2022-09-21T03:03:45;2.87;;;2.37;;
10465;SDS011;5280;42.600;23.556;2022-09-21T03:06:13;2.50;;;2.13;;
10465;SDS011;5280;42.600;23.556;2022-09-21T03:08:40;2.60;;;2.40;;
10465;SDS011;5280;42.600;23.556;2022-09-21T03:11:07;2.57;;;2.37;;
10465;SDS011;5280;42.600;23.556;2022-09-21T03:13:35;2.67;;;2.47;;
10465;SDS011;5280;42.600;23.556;2022-09-21T03:16:03;2.57;;;2.37;;
10465;SDS011;5280;42.600;23.556;2022-09-21T03:18:32;2.70;;;2.50;;
10465;SDS011;5280;42.600;23.556;2022-09-21T03:21:00;2.50;;;2.30;;
10465;SDS011;5280;42.600;23.556;2022-09-21T03:23:27;3.20;;;2.40;;
10465;SDS011;5280;42.600;23.556;2022-09-21T03:25:54;2.70;;;2.50;;
10465;SDS011;5280;42.600;23.556;2022-09-21T03:28:21;2.47;;;2.27;;
10465;SDS011;5280;42.600;23.556;2022-09-21T03:30:50;2.67;;;2.47;;
10465;SDS011;5280;42.600;23.556;2022-09-21T03:33:17;2.17;;;2.07;;
10465;SDS011;5280;42.600;23.556;2022-09-21T03:35:46;2.10;;;2.00;;
10465;SDS011;5280;42.600;23.556;2022-09-21T03:38:13;4.43;;;2.33;;
10465;SDS011;5280;42.600;23.556;2022-09-21T03:40:43;2.10;;;2.00;;
10465;SDS011;5280;42.600;23.556;2022-09-21T03:43:11;2.47;;;2.27;;
10465;SDS011;5280;42.600;23.556;2022-09-21T03:45:37;2.20;;;2.10;;
10465;SDS011;5280;42.600;23.556;2022-09-21T03:48:06;2.93;;;2.73;;
10465;SDS011;5280;42.600;23.556;2022-09-21T03:50:33;2.30;;;2.20;;
10465;SDS011;5280;42.600;23.556;2022-09-21T03:53:02;2.60;;;2.40;;
10465;SDS011;5280;42.600;23.556;2022-09-21T03:55:29;2.37;;;2.17;;
10465;SDS011;5280;42.600;23.556;2022-09-21T03:57:57;2.63;;;2.43;;
10465;SDS011;5280;42.600;23.556;2022-09-21T04:00:25;2.80;;;2.60;;
10465;SDS011;5280;42.600;23.556;2022-09-21T04:02:52;4.40;;;2.70;;
10465;SDS011;5280;42.600;23.556;2022-09-21T04:05:19;3.07;;;2.47;;
10465;SDS011;5280;42.600;23.556;2022-09-21T04:07:46;2.80;;;2.60;;
10465;SDS011;5280;42.600;23.556;2022-09-21T04:10:15;2.70;;;2.50;;
10465;SDS011;5280;42.600;23.556;2022-09-21T04:12:44;2.97;;;2.67;;
10465;SDS011;5280;42.600;23.556;2022-09-21T04:15:12;10.10;;;3.40;;
10465;SDS011;5280;42.600;23.556;2022-09-21T04:17:40;11.33;;;2.97;;
10465;SDS011;5280;42.600;23.556;2022-09-21T04:20:08;2.83;;;2.30;;
10465;SDS011;5280;42.600;23.556;2022-09-21T04:22:35;2.53;;;2.33;;
10465;SDS011;5280;42.600;23.556;2022-09-21T04:25:02;2.27;;;2.17;;
10465;SDS011;5280;42.600;23.556;2022-09-21T04:27:31;2.80;;;2.60;;
10465;SDS011;5280;42.600;23.556;2022-09-21T04:29:58;23.30;;;3.50;;
10465;SDS011;5280;42.600;23.556;2022-09-21T04:32:25;2.57;;;2.37;;
10465;SDS011;5280;42.600;23.556;2022-09-21T04:34:52;3.13;;;2.20;;
10465;SDS011;5280;42.600;23.556;2022-09-21T04:37:21;2.27;;;2.17;;
10465;SDS011;5280;42.600;23.556;2022-09-21T04:39:48;2.00;;;1.90;;
10465;SDS011;5280;42.600;23.556;2022-09-21T04:42:15;2.23;;;2.07;;
10465;SDS011;5280;42.600;23.556;2022-09-21T04:44:43;2.13;;;2.03;;
10465;SDS011;5280;42.600;23.556;2022-09-21T04:47:10;2.10;;;1.90;;
10465;SDS011;5280;42.600;23.556;2022-09-21T04:49:36;2.27;;;1.97;;
10465;SDS011;5280;42.600;23.556;2022-09-21T04:52:04;2.73;;;1.87;;
10465;SDS011;5280;42.600;23.556;2022-09-21T04:54:31;3.30;;;2.10;;
10465;SDS011;5280;42.600;23.556;2022-09-21T04:56:57;2.30;;;2.10;;
10465;SDS011;5280;42.600;23.556;2022-09-21T04:59:24;3.20;;;2.90;;
10465;SDS011;5280;42.600;23.556;2022-09-21T05:01:53;3.13;;;2.93;;
10465;SDS011;5280;42.600;23.556;2022-09-21T05:04:19;3.63;;;3.33;;
10465;SDS011;5280;42.600;23.556;2022-09-21T05:06:46;2.97;;;2.73;;
10465;SDS011;5280;42.600;23.556;2022-09-21T05:09:13;3.20;;;2.83;;
10465;SDS011;5280;42.600;23.556;2022-09-21T05:11:57;3.20;;;2.90;;
10465;SDS011;5280;42.600;23.556;2022-09-21T05:14:24;3.20;;;3.00;;
10465;SDS011;5280;42.600;23.556;2022-09-21T05:16:52;2.87;;;2.67;;
10465;SDS011;5280;42.600;23.556;2022-09-21T05:19:22;5.37;;;2.53;;
10465;SDS011;5280;42.600;23.556;2022-09-21T05:21:49;2.70;;;2.50;;
10465;SDS011;5280;42.600;23.556;2022-09-21T05:24:16;2.80;;;2.57;;
10465;SDS011;5280;42.600;23.556;2022-09-21T05:26:43;3.17;;;2.87;;
10465;SDS011;5280;42.600;23.556;2022-09-21T05:29:10;4.80;;;4.03;;
10465;SDS011;5280;42.600;23.556;2022-09-21T05:31:38;5.17;;;3.67;;
10465;SDS011;5280;42.600;23.556;2022-09-21T05:34:18;4.73;;;4.07;;
10465;SDS011;5280;42.600;23.556;2022-09-21T05:36:55;5.53;;;5.00;;
10465;SDS011;5280;42.600;23.556;2022-09-21T05:39:26;5.13;;;4.63;;
10465;SDS011;5280;42.600;23.556;2022-09-21T05:41:54;4.43;;;3.63;;
10465;SDS011;5280;42.600;23.556;2022-09-21T05:44:21;2.97;;;2.77;;
10465;SDS011;5280;42.600;23.556;2022-09-21T05:46:49;3.67;;;3.37;;
10465;SDS011;5280;42.600;23.556;2022-09-21T05:49:27;3.60;;;3.30;;
10465;SDS011;5280;42.600;23.556;2022-09-21T05:52:03;3.17;;;2.97;;
10465;SDS011;5280;42.600;23.556;2022-09-21T05:54:40;3.20;;;2.90;;
10465;SDS011;5280;42.600;23.556;2022-09-21T05:57:14;4.03;;;3.73;;
10465;SDS011;5280;42.600;23.556;2022-09-21T05:59:51;6.17;;;5.53;;
10465;SDS011;5280;42.600;23.556;2022-09-21T06:02:30;4.73;;;4.33;;
10465;SDS011;5280;42.600;23.556;2022-09-21T06:05:14;3.90;;;3.47;;
10465;SDS011;5280;42.600;23.556;2022-09-21T06:07:41;4.53;;;3.80;;
10465;SDS011;5280;42.600;23.556;2022-09-21T06:10:09;3.43;;;3.13;;
10465;SDS011;5280;42.600;23.556;2022-09-21T06:12:37;4.00;;;3.47;;
10465;SDS011;5280;42.600;23.556;2022-09-21T06:15:05;3.40;;;3.10;;
10465;SDS011;5280;42.600;23.556;2022-09-21T06:17:36;5.37;;;3.07;;
10465;SDS011;5280;42.600;23.556;2022-09-21T06:20:03;3.13;;;2.93;;
10465;SDS011;5280;42.600;23.556;2022-09-21T06:22:32;4.30;;;3.07;;
10465;SDS011;5280;42.600;23.556;2022-09-21T06:24:59;3.00;;;2.80;;
10465;SDS011;5280;42.600;23.556;2022-09-21T06:27:26;3.30;;;3.00;;
10465;SDS011;5280;42.600;23.556;2022-09-21T06:29:53;3.17;;;2.80;;
10465;SDS011;5280;42.600;23.556;2022-09-21T06:32:20;3.13;;;2.80;;
10465;SDS011;5280;42.600;23.556;2022-09-21T06:34:47;3.30;;;3.10;;
10465;SDS011;5280;42.600;23.556;2022-09-21T06:37:15;3.30;;;3.03;;
10465;SDS011;5280;42.600;23.556;2022-09-21T06:39:43;3.47;;;2.80;;
10465;SDS011;5280;42.600;23.556;2022-09-21T06:42:10;5.57;;;3.10;;
10465;SDS011;5280;42.600;23.556;2022-09-21T06:44:37;3.23;;;3.03;;
10465;SDS011;5280;42.600;23.556;2022-09-21T06:47:04;3.70;;;3.40;;
10465;SDS011;5280;42.600;23.556;2022-09-21T06:49:30;7.23;;;3.10;;
10465;SDS011;5280;42.600;23.556;2022-09-21T06:51:57;6.07;;;2.60;;
10465;SDS011;5280;42.600;23.556;2022-09-21T06:54:24;5.63;;;2.67;;
10465;SDS011;5280;42.600;23.556;2022-09-21T06:56:52;6.97;;;2.90;;
10465;SDS011;5280;42.600;23.556;2022-09-21T06:59:19;6.43;;;3.30;;
10465;SDS011;5280;42.600;23.556;2022-09-21T07:01:46;3.63;;;2.70;;
10465;SDS011;5280;42.600;23.556;2022-09-21T07:04:13;5.00;;;2.17;;
10465;SDS011;5280;42.600;23.556;2022-09-21T07:06:39;2.70;;;2.30;;
10465;SDS011;5280;42.600;23.556;2022-09-21T07:09:06;3.23;;;2.70;;
10465;SDS011;5280;42.600;23.556;2022-09-21T07:11:33;3.13;;;2.40;;
10465;SDS011;5280;42.600;23.556;2022-09-21T07:14:01;4.13;;;2.63;;
10465;SDS011;5280;42.600;23.556;2022-09-21T07:16:29;5.87;;;2.77;;
10465;SDS011;5280;42.600;23.556;2022-09-21T07:18:57;2.70;;;2.50;;
10465;SDS011;5280;42.600;23.556;2022-09-21T07:21:24;4.67;;;3.07;;
10465;SDS011;5280;42.600;23.556;2022-09-21T07:23:51;3.57;;;2.87;;
10465;SDS011;5280;42.600;23.556;2022-09-21T07:26:18;3.53;;;2.80;;
10465;SDS011;5280;42.600;23.556;2022-09-21T07:28:44;3.87;;;2.80;;
10465;SDS011;5280;42.600;23.556;2022-09-21T07:31:14;2.63;;;2.40;;
10465;SDS011;5280;42.600;23.556;2022-09-21T07:33:42;3.43;;;2.60;;
10465;SDS011;5280;42.600;23.556;2022-09-21T07:36:10;3.10;;;2.90;;
10465;SDS011;5280;42.600;23.556;2022-09-21T07:38:38;3.47;;;3.17;;
10465;SDS011;5280;42.600;23.556;2022-09-21T07:41:06;4.77;;;2.90;;
10465;SDS011;5280;42.600;23.556;2022-09-21T07:43:33;3.90;;;3.20;;
10465;SDS011;5280;42.600;23.556;2022-09-21T07:46:00;5.63;;;3.40;;
10465;SDS011;5280;42.600;23.556;2022-09-21T07:48:28;3.00;;;2.50;;
10465;SDS011;5280;42.600;23.556;2022-09-21T07:50:59;2.60;;;2.00;;
10465;SDS011;5280;42.600;23.556;2022-09-21T07:53:28;2.03;;;1.73;;
10465;SDS011;5280;42.600;23.556;2022-09-21T07:55:59;2.57;;;1.70;;
10465;SDS011;5280;42.600;23.556;2022-09-21T07:58:26;1.50;;;1.40;;
10465;SDS011;5280;42.600;23.556;2022-09-21T08:01:11;3.70;;;1.87;;
10465;SDS011;5280;42.600;23.556;2022-09-21T08:03:39;2.77;;;1.57;;
10465;SDS011;5280;42.600;23.556;2022-09-21T08:06:06;1.67;;;1.33;;
10465;SDS011;5280;42.600;23.556;2022-09-21T08:08:33;1.53;;;1.40;;
10465;SDS011;5280;42.600;23.556;2022-09-21T08:11:06;2.97;;;1.30;;
10465;SDS011;5280;42.600;23.556;2022-09-21T08:13:36;1.53;;;1.43;;
10465;SDS011;5280;42.600;23.556;2022-09-21T08:16:03;1.50;;;1.40;;
10465;SDS011;5280;42.600;23.556;2022-09-21T08:18:29;1.50;;;1.40;;
10465;SDS011;5280;42.600;23.556;2022-09-21T08:20:58;1.50;;;1.40;;
10465;SDS011;5280;42.600;23.556;2022-09-21T08:23:26;1.70;;;1.60;;
10465;SDS011;5280;42.600;23.556;2022-09-21T08:25:56;1.50;;;1.40;;
10465;SDS011;5280;42.600;23.556;2022-09-21T08:28:24;1.97;;;1.43;;
10465;SDS011;5280;42.600;23.556;2022-09-21T08:30:51;1.70;;;1.60;;
10465;SDS011;5280;42.600;23.556;2022-09-21T08:33:18;2.73;;;1.57;;
10465;SDS011;5280;42.600;23.556;2022-09-21T08:35:50;1.50;;;1.40;;
10465;SDS011;5280;42.600;23.556;2022-09-21T08:38:19;1.73;;;1.50;;
10465;SDS011;5280;42.600;23.556;2022-09-21T08:40:48;2.57;;;1.50;;
10465;SDS011;5280;42.600;23.556;2022-09-21T08:43:17;1.80;;;1.40;;
10465;SDS011;5280;42.600;23.556;2022-09-21T08:45:48;1.47;;;1.20;;
10465;SDS011;5280;42.600;23.556;2022-09-21T08:48:19;14.90;;;2.10;;
10465;SDS011;5280;42.600;23.556;2022-09-21T08:50:49;1.80;;;1.27;;
10465;SDS011;5280;42.600;23.556;2022-09-21T08:53:21;1.43;;;1.20;;
10465;SDS011;5280;42.600;23.556;2022-09-21T08:55:54;1.20;;;1.20;;
10465;SDS011;5280;42.600;23.556;2022-09-21T08:58:22;1.93;;;1.07;;
10465;SDS011;5280;42.600;23.556;2022-09-21T09:00:52;1.20;;;1.10;;
10465;SDS011;5280;42.600;23.556;2022-09-21T09:03:46;1.30;;;1.00;;
10465;SDS011;5280;42.600;23.556;2022-09-21T09:06:26;1.30;;;1.20;;
10465;SDS011;5280;42.600;23.556;2022-09-21T09:09:08;1.27;;;1.17;;
10465;SDS011;5280;42.600;23.556;2022-09-21T09:11:49;2.67;;;1.40;;
10465;SDS011;5280;42.600;23.556;2022-09-21T09:14:40;2.27;;;1.10;;
10465;SDS011;5280;42.600;23.556;2022-09-21T09:20:10;0.70;;;0.70;;
10465;SDS011;5280;42.600;23.556;2022-09-21T09:22:42;1.20;;;1.17;;
10465;SDS011;5280;42.600;23.556;2022-09-21T09:25:16;2.83;;;1.50;;
10465;SDS011;5280;42.600;23.556;2022-09-21T09:27:46;1.20;;;1.17;;
10465;SDS011;5280;42.600;23.556;2022-09-21T09:30:18;1.23;;;1.10;;
10465;SDS011;5280;42.600;23.556;2022-09-21T09:32:51;3.17;;;1.23;;
10465;SDS011;5280;42.600;23.556;2022-09-21T09:35:24;1.70;;;1.30;;
10465;SDS011;5280;42.600;23.556;2022-09-21T09:37:54;1.37;;;0.80;;
10465;SDS011;5280;42.600;23.556;2022-09-21T09:40:31;1.00;;;1.00;;
10465;SDS011;5280;42.600;23.556;2022-09-21T09:43:11;1.90;;;0.93;;
10465;SDS011;5280;42.600;23.556;2022-09-21T09:45:50;1.93;;;0.93;;
10465;SDS011;5280;42.600;23.556;2022-09-21T09:48:36;0.93;;;0.70;;
10465;SDS011;5280;42.600;23.556;2022-09-21T09:51:14;1.10;;;1.10;;
10465;SDS011;5280;42.600;23.556;2022-09-21T09:53:41;0.60;;;0.60;;
10465;SDS011;5280;42.600;23.556;2022-09-21T09:56:09;0.80;;;0.80;;
10465;SDS011;5280;42.600;23.556;2022-09-21T09:58:40;0.90;;;0.90;;
10465;SDS011;5280;42.600;23.556;2022-09-21T10:04:06;0.90;;;0.90;;
10465;SDS011;5280;42.600;23.556;2022-09-21T10:06:34;0.90;;;0.90;;
10465;SDS011;5280;42.600;23.556;2022-09-21T10:09:05;1.30;;;1.20;;
10465;SDS011;5280;42.600;23.556;2022-09-21T10:11:48;1.90;;;0.80;;
10465;SDS011;5280;42.600;23.556;2022-09-21T10:14:17;1.03;;;0.80;;
10465;SDS011;5280;42.600;23.556;2022-09-21T10:16:47;0.97;;;0.90;;
10465;SDS011;5280;42.600;23.556;2022-09-21T10:19:17;1.97;;;1.40;;
10465;SDS011;5280;42.600;23.556;2022-09-21T10:21:47;0.63;;;0.63;;
10465;SDS011;5280;42.600;23.556;2022-09-21T10:24:21;1.43;;;0.80;;
10465;SDS011;5280;42.600;23.556;2022-09-21T10:26:53;2.07;;;0.67;;
10465;SDS011;5280;42.600;23.556;2022-09-21T10:29:29;0.60;;;0.60;;
10465;SDS011;5280;42.600;23.556;2022-09-21T10:31:58;1.03;;;0.93;;
10465;SDS011;5280;42.600;23.556;2022-09-21T10:34:27;1.00;;;0.93;;
10465;SDS011;5280;42.600;23.556;2022-09-21T10:36:59;0.73;;;0.73;;
10465;SDS011;5280;42.600;23.556;2022-09-21T10:39:28;0.73;;;0.63;;
10465;SDS011;5280;42.600;23.556;2022-09-21T10:42:01;0.80;;;0.80;;
10465;SDS011;5280;42.600;23.556;2022-09-21T10:44:35;1.97;;;0.70;;
10465;SDS011;5280;42.600;23.556;2022-09-21T10:49:48;3.23;;;0.90;;
10465;SDS011;5280;42.600;23.556;2022-09-21T10:52:17;1.13;;;1.13;;
10465;SDS011;5280;42.600;23.556;2022-09-21T10:54:47;1.80;;;0.90;;
10465;SDS011;5280;42.600;23.556;2022-09-21T10:57:19;1.27;;;1.17;;
10465;SDS011;5280;42.600;23.556;2022-09-21T10:59:49;1.40;;;1.07;;
10465;SDS011;5280;42.600;23.556;2022-09-21T11:02:26;3.20;;;1.47;;
10465;SDS011;5280;42.600;23.556;2022-09-21T11:05:00;0.90;;;0.90;;
10465;SDS011;5280;42.600;23.556;2022-09-21T11:07:34;2.33;;;1.10;;
10465;SDS011;5280;42.600;23.556;2022-09-21T11:10:07;1.93;;;0.90;;
10465;SDS011;5280;42.600;23.556;2022-09-21T11:12:46;0.90;;;0.90;;
10465;SDS011;5280;42.600;23.556;2022-09-21T11:15:23;2.03;;;0.70;;
10465;SDS011;5280;42.600;23.556;2022-09-21T11:18:01;0.60;;;0.60;;
10465;SDS011;5280;42.600;23.556;2022-09-21T11:20:33;1.20;;;0.70;;
10465;SDS011;5280;42.600;23.556;2022-09-21T11:23:08;1.40;;;0.77;;
10465;SDS011;5280;42.600;23.556;2022-09-21T11:25:47;0.53;;;0.53;;
10465;SDS011;5280;42.600;23.556;2022-09-21T11:28:21;0.40;;;0.40;;
10465;SDS011;5280;42.600;23.556;2022-09-21T11:30:57;0.53;;;0.53;;
10465;SDS011;5280;42.600;23.556;2022-09-21T11:33:49;0.87;;;0.87;;
10465;SDS011;5280;42.600;23.556;2022-09-21T11:36:30;0.60;;;0.60;;
10465;SDS011;5280;42.600;23.556;2022-09-21T11:39:12;1.07;;;0.63;;
10465;SDS011;5280;42.600;23.556;2022-09-21T11:41:51;1.77;;;0.70;;
10465;SDS011;5280;42.600;23.556;2022-09-21T11:44:32;0.70;;;0.70;;
10465;SDS011;5280;42.600;23.556;2022-09-21T11:47:16;1.13;;;0.80;;
10465;SDS011;5280;42.600;23.556;2022-09-21T11:50:01;2.10;;;0.90;;
10465;SDS011;5280;42.600;23.556;2022-09-21T11:52:49;1.27;;;0.90;;
10465;SDS011;5280;42.600;23.556;2022-09-21T11:55:35;0.50;;;0.50;;
10465;SDS011;5280;42.600;23.556;2022-09-21T11:58:15;0.60;;;0.60;;
10465;SDS011;5280;42.600;23.556;2022-09-21T12:00:56;1.03;;;0.70;;
10465;SDS011;5280;42.600;23.556;2022-09-21T12:03:49;0.60;;;0.60;;
10465;SDS011;5280;42.600;23.556;2022-09-21T12:06:36;0.67;;;0.67;;
10465;SDS011;5280;42.600;23.556;2022-09-21T12:09:33;1.87;;;0.70;;
10465;SDS011;5280;42.600;23.556;2022-09-21T12:12:31;1.43;;;0.83;;
10465;SDS011;5280;42.600;23.556;2022-09-21T12:15:06;0.70;;;0.70;;
10465;SDS011;5280;42.600;23.556;2022-09-21T12:17:41;1.73;;;0.80;;
10465;SDS011;5280;42.600;23.556;2022-09-21T12:20:17;0.73;;;0.60;;
10465;SDS011;5280;42.600;23.556;2022-09-21T12:22:55;7.50;;;0.60;;
10465;SDS011;5280;42.600;23.556;2022-09-21T12:25:26;0.50;;;0.50;;
10465;SDS011;5280;42.600;23.556;2022-09-21T12:27:59;1.53;;;0.67;;
10465;SDS011;5280;42.600;23.556;2022-09-21T12:30:31;0.50;;;0.50;;
10465;SDS011;5280;42.600;23.556;2022-09-21T12:33:04;0.50;;;0.50;;
10465;SDS011;5280;42.600;23.556;2022-09-21T12:35:39;0.97;;;0.53;;
10465;SDS011;5280;42.600;23.556;2022-09-21T12:38:11;0.50;;;0.50;;
10465;SDS011;5280;42.600;23.556;2022-09-21T12:40:42;1.07;;;0.50;;
10465;SDS011;5280;42.600;23.556;2022-09-21T12:43:19;0.50;;;0.50;;
10465;SDS011;5280;42.600;23.556;2022-09-21T12:45:54;0.50;;;0.37;;
10465;SDS011;5280;42.600;23.556;2022-09-21T12:48:28;0.47;;;0.40;;
10465;SDS011;5280;42.600;23.556;2022-09-21T12:51:00;0.60;;;0.60;;
10465;SDS011;5280;42.600;23.556;2022-09-21T12:53:33;0.67;;;0.67;;
10465;SDS011;5280;42.600;23.556;2022-09-21T12:56:04;1.47;;;0.80;;
10465;SDS011;5280;42.600;23.556;2022-09-21T13:01:30;0.77;;;0.77;;
10465;SDS011;5280;42.600;23.556;2022-09-21T13:04:26;3.10;;;1.03;;
10465;SDS011;5280;42.600;23.556;2022-09-21T13:10:17;0.60;;;0.40;;
10465;SDS011;5280;42.600;23.556;2022-09-21T13:12:50;0.60;;;0.60;;
10465;SDS011;5280;42.600;23.556;2022-09-21T13:15:24;0.57;;;0.57;;
10465;SDS011;5280;42.600;23.556;2022-09-21T13:17:56;2.00;;;0.60;;
10465;SDS011;5280;42.600;23.556;2022-09-21T13:20:26;0.50;;;0.50;;
10465;SDS011;5280;42.600;23.556;2022-09-21T13:22:59;0.87;;;0.50;;
10465;SDS011;5280;42.600;23.556;2022-09-21T13:25:28;1.73;;;0.70;;
10465;SDS011;5280;42.600;23.556;2022-09-21T13:28:04;0.50;;;0.50;;
10465;SDS011;5280;42.600;23.556;2022-09-21T13:30:38;0.70;;;0.70;;
10465;SDS011;5280;42.600;23.556;2022-09-21T13:36:27;1.50;;;0.50;;
10465;SDS011;5280;42.600;23.556;2022-09-21T13:39:03;0.50;;;0.50;;
10465;SDS011;5280;42.600;23.556;2022-09-21T13:41:41;0.57;;;0.53;;
10465;SDS011;5280;42.600;23.556;2022-09-21T13:44:18;0.50;;;0.50;;
10465;SDS011;5280;42.600;23.556;2022-09-21T13:47:00;0.63;;;0.40;;
10465;SDS011;5280;42.600;23.556;2022-09-21T13:49:37;0.60;;;0.60;;
10465;SDS011;5280;42.600;23.556;2022-09-21T13:52:28;0.60;;;0.60;;
10465;SDS011;5280;42.600;23.556;2022-09-21T13:55:02;0.50;;;0.50;;
10465;SDS011;5280;42.600;23.556;2022-09-21T13:57:33;0.33;;;0.33;;
10465;SDS011;5280;42.600;23.556;2022-09-21T14:03:00;0.53;;;0.53;;
10465;SDS011;5280;42.600;23.556;2022-09-21T14:05:33;0.27;;;0.27;;
10465;SDS011;5280;42.600;23.556;2022-09-21T14:08:06;3.23;;;0.50;;
10465;SDS011;5280;42.600;23.556;2022-09-21T14:10:48;0.40;;;0.40;;
10465;SDS011;5280;42.600;23.556;2022-09-21T14:13:23;0.40;;;0.37;;
10465;SDS011;5280;42.600;23.556;2022-09-21T14:15:53;0.40;;;0.40;;
10465;SDS011;5280;42.600;23.556;2022-09-21T14:21:11;0.63;;;0.63;;
10465;SDS011;5280;42.600;23.556;2022-09-21T14:26:54;1.90;;;0.73;;
10465;SDS011;5280;42.600;23.556;2022-09-21T14:29:28;2.57;;;0.70;;
10465;SDS011;5280;42.600;23.556;2022-09-21T14:32:01;5.90;;;0.60;;
10465;SDS011;5280;42.600;23.556;2022-09-21T14:34:31;3.63;;;0.53;;
10465;SDS011;5280;42.600;23.556;2022-09-21T14:37:02;0.97;;;0.43;;
10465;SDS011;5280;42.600;23.556;2022-09-21T14:39:37;2.80;;;0.73;;
10465;SDS011;5280;42.600;23.556;2022-09-21T14:42:10;0.50;;;0.50;;
10465;SDS011;5280;42.600;23.556;2022-09-21T14:44:42;0.50;;;0.50;;
10465;SDS011;5280;42.600;23.556;2022-09-21T14:47:18;1.30;;;0.60;;
10465;SDS011;5280;42.600;23.556;2022-09-21T14:49:58;0.60;;;0.60;;
10465;SDS011;5280;42.600;23.556;2022-09-21T14:52:35;1.63;;;0.70;;
10465;SDS011;5280;42.600;23.556;2022-09-21T14:55:15;0.63;;;0.47;;
10465;SDS011;5280;42.600;23.556;2022-09-21T14:57:49;0.70;;;0.70;;
10465;SDS011;5280;42.600;23.556;2022-09-21T15:00:34;0.60;;;0.60;;
10465;SDS011;5280;42.600;23.556;2022-09-21T15:03:13;0.60;;;0.60;;
10465;SDS011;5280;42.600;23.556;2022-09-21T15:06:07;8.70;;;1.90;;
10465;SDS011;5280;42.600;23.556;2022-09-21T15:09:03;2.40;;;1.60;;
10465;SDS011;5280;42.600;23.556;2022-09-21T15:12:02;1.67;;;1.30;;
10465;SDS011;5280;42.600;23.556;2022-09-21T15:14:38;4.50;;;1.63;;
10465;SDS011;5280;42.600;23.556;2022-09-21T15:17:17;1.60;;;1.50;;
10465;SDS011;5280;42.600;23.556;2022-09-21T15:19:49;1.47;;;1.20;;
10465;SDS011;5280;42.600;23.556;2022-09-21T15:22:16;1.33;;;1.23;;
10465;SDS011;5280;42.600;23.556;2022-09-21T15:24:49;1.30;;;1.00;;
10465;SDS011;5280;42.600;23.556;2022-09-21T15:27:19;2.27;;;1.27;;
10465;SDS011;5280;42.600;23.556;2022-09-21T15:29:48;5.60;;;1.57;;
10465;SDS011;5280;42.600;23.556;2022-09-21T15:32:22;44.67;;;5.90;;
10465;SDS011;5280;42.600;23.556;2022-09-21T15:34:57;35.00;;;4.57;;
10465;SDS011;5280;42.600;23.556;2022-09-21T15:37:26;10.00;;;2.10;;
10465;SDS011;5280;42.600;23.556;2022-09-21T15:40:01;4.80;;;1.77;;
10465;SDS011;5280;42.600;23.556;2022-09-21T15:42:32;0.90;;;0.90;;
10465;SDS011;5280;42.600;23.556;2022-09-21T15:45:11;0.60;;;0.60;;
10465;SDS011;5280;42.600;23.556;2022-09-21T15:47:40;3.50;;;0.60;;